Time;durP1;ratioP1;P1;durP2;ratioP2;P2;SDS_P1;SDS_P2;PMS_P1;PMS_P2;Temp;Humidity;BMP_temperature;BMP_pressure;BME280_temperature;BME280_humidity;BME280_pressure;Samples;Min_cycle;Max_cycle;Signal;HPM_P1;HPM_P2
2021/12/18 00:00:23;;;;;;;22.98;18.65;;;;;;;;;;5057367;28;20507;-82
2021/12/18 00:02:50;;;;;;;27.35;19.77;;;;;;;;;;5056797;28;20467;-83
2021/12/18 00:05:19;;;;;;;22.65;18.52;;;;;;;;;;5056346;28;20242;-82
2021/12/18 00:07:46;;;;;;;24.10;18.97;;;;;;;;;;5056119;28;20253;-81
2021/12/18 00:10:13;;;;;;;23.70;18.30;;;;;;;;;;5056595;28;20437;-82
2021/12/18 00:12:47;;;;;;;22.63;18.47;;;;;;;;;;5056138;28;20199;-82
2021/12/18 00:15:14;;;;;;;21.50;17.73;;;;;;;;;;5056811;28;20458;-82
2021/12/18 00:17:41;;;;;;;24.53;20.20;;;;;;;;;;5056499;28;20453;-82
2021/12/18 00:20:09;;;;;;;23.27;18.70;;;;;;;;;;5056132;28;20434;-82
2021/12/18 00:22:37;;;;;;;24.73;19.27;;;;;;;;;;5055922;28;20452;-81
2021/12/18 00:25:05;;;;;;;24.27;19.57;;;;;;;;;;5057082;28;20527;-83
2021/12/18 00:27:32;;;;;;;21.97;18.73;;;;;;;;;;5057125;28;20438;-83
2021/12/18 00:29:59;;;;;;;26.23;19.90;;;;;;;;;;5057240;28;20485;-82
2021/12/18 00:32:26;;;;;;;21.90;19.53;;;;;;;;;;5057278;28;20453;-82
2021/12/18 00:34:53;;;;;;;25.70;20.60;;;;;;;;;;5056238;28;20472;-83
2021/12/18 00:37:20;;;;;;;24.17;18.87;;;;;;;;;;5056351;28;20505;-83
2021/12/18 00:39:56;;;;;;;25.83;19.10;;;;;;;;;;5056561;28;20453;-82
2021/12/18 00:42:37;;;;;;;23.07;18.50;;;;;;;;;;5055681;28;20445;-83
2021/12/18 00:45:04;;;;;;;24.00;18.73;;;;;;;;;;5055494;28;20574;-82
2021/12/18 00:47:31;;;;;;;25.97;20.80;;;;;;;;;;5056246;28;20449;-82
2021/12/18 00:49:58;;;;;;;26.03;19.37;;;;;;;;;;5056224;28;20554;-82
2021/12/18 00:52:25;;;;;;;23.50;19.50;;;;;;;;;;5056765;28;20437;-83
2021/12/18 00:54:54;;;;;;;23.40;18.43;;;;;;;;;;5056818;28;20855;-81
2021/12/18 00:57:22;;;;;;;23.90;19.43;;;;;;;;;;5057712;28;20480;-82
2021/12/18 00:59:51;;;;;;;23.77;19.40;;;;;;;;;;5056781;28;20449;-82
2021/12/18 01:02:18;;;;;;;27.50;20.00;;;;;;;;;;5057298;28;20445;-81
2021/12/18 01:04:45;;;;;;;26.00;20.17;;;;;;;;;;5056589;28;20485;-82
2021/12/18 01:07:12;;;;;;;24.00;19.00;;;;;;;;;;5058678;28;20446;-81
2021/12/18 01:09:56;;;;;;;23.60;19.73;;;;;;;;;;5059132;28;20540;-82
2021/12/18 01:12:29;;;;;;;25.40;19.40;;;;;;;;;;5058206;28;20556;-81
2021/12/18 01:15:08;;;;;;;21.58;18.30;;;;;;;;;;5061032;28;20564;-82
2021/12/18 01:23:04;;;;;;;22.83;18.47;;;;;;;;;;5066357;28;20198;-81
2021/12/18 01:25:32;;;;;;;24.02;19.65;;;;;;;;;;5064839;28;20469;-81
2021/12/18 01:28:00;;;;;;;23.67;19.47;;;;;;;;;;5064297;28;20225;-81
2021/12/18 01:30:27;;;;;;;23.00;18.73;;;;;;;;;;5062712;28;20450;-81
2021/12/18 01:32:55;;;;;;;23.50;19.20;;;;;;;;;;5064181;28;20453;-82
2021/12/18 01:35:22;;;;;;;24.30;19.50;;;;;;;;;;5064937;28;20668;-82
2021/12/18 01:37:50;;;;;;;26.03;19.90;;;;;;;;;;5064555;28;20460;-81
2021/12/18 01:40:18;;;;;;;24.57;20.77;;;;;;;;;;5064094;28;21241;-81
2021/12/18 01:45:42;;;;;;;22.20;18.43;;;;;;;;;;5060035;28;20440;-82
2021/12/18 02:14:36;;;;;;;24.10;19.02;;;;;;;;;;5018987;28;20422;-81
2021/12/18 02:23:28;;;;;;;25.93;21.00;;;;;;;;;;4943566;29;20438;-82
2021/12/18 02:35:26;;;;;;;26.00;19.70;;;;;;;;;;4828102;29;20589;-83
2021/12/18 02:37:53;;;;;;;24.77;17.93;;;;;;;;;;4851754;29;20451;-81
2021/12/18 02:43:11;;;;;;;24.07;18.73;;;;;;;;;;5070615;28;20454;-80
2021/12/18 02:45:38;;;;;;;25.85;20.38;;;;;;;;;;5072776;28;20453;-81
2021/12/18 02:48:05;;;;;;;23.67;18.83;;;;;;;;;;5071905;28;20198;-80
2021/12/18 02:50:33;;;;;;;23.50;19.17;;;;;;;;;;5069696;28;20495;-81
2021/12/18 02:53:00;;;;;;;25.13;19.27;;;;;;;;;;5063753;28;20452;-83
2021/12/18 02:55:27;;;;;;;26.57;19.07;;;;;;;;;;5061425;28;20466;-81
2021/12/18 02:57:55;;;;;;;22.37;18.03;;;;;;;;;;5061567;28;20437;-81
2021/12/18 03:00:25;;;;;;;25.53;20.00;;;;;;;;;;5059289;28;20440;-81
2021/12/18 03:02:52;;;;;;;24.93;19.17;;;;;;;;;;5070784;28;20882;-82
2021/12/18 03:05:30;;;;;;;25.03;19.47;;;;;;;;;;5079142;28;20460;-83
2021/12/18 03:08:04;;;;;;;26.33;18.80;;;;;;;;;;5078035;28;20436;-80
2021/12/18 03:24:29;;;;;;;24.97;19.20;;;;;;;;;;5023887;28;20434;-81
2021/12/18 03:26:56;;;;;;;23.90;17.83;;;;;;;;;;5082077;28;20478;-82
2021/12/18 03:29:25;;;;;;;26.80;19.30;;;;;;;;;;5083620;28;20485;-82
2021/12/18 03:31:52;;;;;;;23.60;18.50;;;;;;;;;;5078147;28;20962;-81
2021/12/18 03:34:19;;;;;;;25.67;18.43;;;;;;;;;;5078172;28;20426;-82
2021/12/18 03:36:46;;;;;;;24.33;18.33;;;;;;;;;;5078316;28;20442;-82
2021/12/18 03:39:15;;;;;;;28.23;19.20;;;;;;;;;;5079490;28;20440;-83
2021/12/18 03:41:42;;;;;;;24.40;17.80;;;;;;;;;;5079746;28;20600;-82
2021/12/18 03:44:09;;;;;;;24.63;18.15;;;;;;;;;;5079934;28;20451;-83
2021/12/18 03:46:38;;;;;;;25.40;19.00;;;;;;;;;;5080601;28;20419;-82
2021/12/18 03:49:05;;;;;;;25.87;18.47;;;;;;;;;;5080103;28;20480;-82
2021/12/18 03:51:32;;;;;;;25.33;17.13;;;;;;;;;;5080283;28;20810;-82
2021/12/18 03:53:59;;;;;;;23.23;16.70;;;;;;;;;;5080109;28;20540;-82
2021/12/18 03:56:26;;;;;;;23.73;17.80;;;;;;;;;;5080263;28;20463;-82
2021/12/18 03:58:53;;;;;;;24.10;17.93;;;;;;;;;;5079658;28;20551;-83
2021/12/18 04:01:21;;;;;;;27.60;18.33;;;;;;;;;;5079820;28;20551;-82
2021/12/18 04:03:50;;;;;;;25.67;17.52;;;;;;;;;;5059661;28;20444;-82
2021/12/18 04:06:17;;;;;;;24.07;17.07;;;;;;;;;;5063047;28;20227;-81
2021/12/18 04:08:44;;;;;;;24.43;17.07;;;;;;;;;;5068849;28;20502;-82
2021/12/18 04:11:11;;;;;;;25.70;18.13;;;;;;;;;;5082619;28;20457;-82
2021/12/18 04:13:43;;;;;;;25.00;18.63;;;;;;;;;;5080221;28;20445;-83
2021/12/18 04:16:10;;;;;;;24.20;17.53;;;;;;;;;;5079613;28;20489;-83
2021/12/18 04:18:37;;;;;;;25.60;18.00;;;;;;;;;;5080599;28;20450;-82
2021/12/18 04:21:05;;;;;;;26.05;18.17;;;;;;;;;;5080247;28;20444;-82
2021/12/18 04:23:33;;;;;;;23.50;17.50;;;;;;;;;;5080096;28;20192;-82
2021/12/18 04:26:00;;;;;;;24.73;17.37;;;;;;;;;;5079467;28;20474;-82
2021/12/18 04:28:27;;;;;;;27.43;19.23;;;;;;;;;;5079965;28;20453;-82
2021/12/18 04:30:54;;;;;;;24.70;17.70;;;;;;;;;;5079777;28;20889;-83
2021/12/18 04:33:21;;;;;;;23.27;17.20;;;;;;;;;;5079549;28;20454;-82
2021/12/18 04:35:48;;;;;;;24.07;18.30;;;;;;;;;;5080108;28;20478;-82
2021/12/18 04:38:17;;;;;;;23.40;16.40;;;;;;;;;;5078977;28;20448;-83
2021/12/18 04:40:44;;;;;;;23.80;17.00;;;;;;;;;;5076095;28;20448;-81
2021/12/18 04:43:11;;;;;;;23.67;16.40;;;;;;;;;;5068743;28;20463;-82
2021/12/18 04:45:38;;;;;;;22.77;17.13;;;;;;;;;;5079871;28;21030;-83
2021/12/18 04:48:06;;;;;;;22.57;16.10;;;;;;;;;;5079940;28;20537;-83
2021/12/18 04:50:33;;;;;;;23.90;17.43;;;;;;;;;;5079760;28;20485;-82
2021/12/18 04:53:00;;;;;;;24.60;18.10;;;;;;;;;;5079377;28;20805;-83
2021/12/18 04:55:28;;;;;;;24.07;16.53;;;;;;;;;;5079419;28;20985;-83
2021/12/18 04:57:55;;;;;;;25.10;17.30;;;;;;;;;;5079360;28;20428;-82
2021/12/18 05:00:27;;;;;;;25.77;17.23;;;;;;;;;;5079924;28;20433;-83
2021/12/18 05:02:55;;;;;;;26.97;18.83;;;;;;;;;;5066475;28;20450;-81
2021/12/18 05:05:22;;;;;;;26.17;18.17;;;;;;;;;;5058694;28;20463;-81
2021/12/18 05:07:49;;;;;;;23.67;17.07;;;;;;;;;;5055510;28;20451;-82
2021/12/18 05:10:16;;;;;;;23.87;16.60;;;;;;;;;;5055032;28;20479;-84
2021/12/18 05:12:44;;;;;;;22.87;17.37;;;;;;;;;;5055325;28;20534;-82
2021/12/18 05:15:12;;;;;;;23.23;17.40;;;;;;;;;;5058916;28;20850;-82
2021/12/18 05:17:39;;;;;;;25.80;18.23;;;;;;;;;;5059218;28;20437;-80
2021/12/18 05:20:06;;;;;;;24.70;17.00;;;;;;;;;;5070207;28;20202;-82
2021/12/18 05:22:33;;;;;;;23.53;16.37;;;;;;;;;;5071890;28;20761;-84
2021/12/18 05:25:00;;;;;;;19.77;14.20;;;;;;;;;;5073897;28;20475;-82
2021/12/18 05:27:28;;;;;;;18.37;13.10;;;;;;;;;;5073676;28;20428;-84
2021/12/18 05:29:56;;;;;;;17.30;12.87;;;;;;;;;;5063567;28;21081;-82
2021/12/18 05:32:23;;;;;;;19.83;14.27;;;;;;;;;;5056465;28;20454;-82
2021/12/18 05:34:50;;;;;;;19.37;14.00;;;;;;;;;;5056034;28;20467;-83
2021/12/18 05:37:20;;;;;;;18.57;13.60;;;;;;;;;;5056803;28;20476;-82
2021/12/18 05:39:48;;;;;;;17.92;12.70;;;;;;;;;;5055410;28;20472;-84
2021/12/18 05:42:15;;;;;;;17.73;12.68;;;;;;;;;;5055893;28;20214;-83
2021/12/18 05:44:42;;;;;;;17.07;12.77;;;;;;;;;;5055226;28;20226;-83
2021/12/18 05:47:11;;;;;;;34.70;23.60;;;;;;;;;;5055225;28;20538;-82
2021/12/18 05:49:38;;;;;;;19.20;12.87;;;;;;;;;;5054692;28;20489;-82
2021/12/18 05:52:07;;;;;;;18.50;13.83;;;;;;;;;;5055141;28;20437;-81
2021/12/18 05:54:35;;;;;;;19.60;14.13;;;;;;;;;;5054811;28;20851;-82
2021/12/18 05:57:03;;;;;;;19.43;14.30;;;;;;;;;;5055312;28;20441;-82
2021/12/18 05:59:30;;;;;;;18.77;13.90;;;;;;;;;;5054837;28;20444;-83
2021/12/18 06:01:57;;;;;;;19.73;13.13;;;;;;;;;;5059496;28;20445;-82
2021/12/18 06:04:25;;;;;;;19.50;14.33;;;;;;;;;;5078871;28;20288;-81
2021/12/18 06:06:52;;;;;;;16.30;12.47;;;;;;;;;;5074763;28;20444;-83
2021/12/18 06:09:19;;;;;;;20.40;14.30;;;;;;;;;;5074955;28;20934;-82
2021/12/18 06:11:46;;;;;;;19.40;13.60;;;;;;;;;;5078031;28;20266;-80
2021/12/18 06:14:14;;;;;;;19.20;14.33;;;;;;;;;;5076696;28;20441;-82
2021/12/18 06:16:41;;;;;;;19.08;13.38;;;;;;;;;;5077474;28;20428;-80
2021/12/18 06:19:08;;;;;;;19.53;14.40;;;;;;;;;;5076872;28;20200;-81
2021/12/18 06:21:36;;;;;;;20.33;14.60;;;;;;;;;;5077701;28;20526;-82
2021/12/18 06:24:03;;;;;;;23.00;15.73;;;;;;;;;;5075554;28;20454;-82
2021/12/18 06:26:30;;;;;;;20.27;14.73;;;;;;;;;;5077522;28;20442;-80
2021/12/18 06:28:57;;;;;;;19.03;13.63;;;;;;;;;;5077149;28;20444;-82
2021/12/18 06:31:24;;;;;;;26.07;14.43;;;;;;;;;;5076745;28;20509;-81
2021/12/18 06:33:52;;;;;;;17.17;13.27;;;;;;;;;;5076652;28;20450;-81
2021/12/18 06:36:19;;;;;;;16.03;12.40;;;;;;;;;;5077230;28;20474;-81
2021/12/18 06:38:47;;;;;;;18.23;12.90;;;;;;;;;;5077829;28;20457;-81
2021/12/18 06:41:14;;;;;;;17.38;12.38;;;;;;;;;;5077633;28;20434;-82
2021/12/18 06:43:41;;;;;;;13.83;10.60;;;;;;;;;;5076919;28;20232;-80
2021/12/18 06:46:08;;;;;;;17.03;12.13;;;;;;;;;;5077054;28;20451;-81
2021/12/18 06:48:36;;;;;;;16.70;11.73;;;;;;;;;;5076968;28;20437;-82
2021/12/18 06:51:03;;;;;;;16.10;11.67;;;;;;;;;;5076786;28;20482;-81
2021/12/18 06:53:30;;;;;;;15.90;11.70;;;;;;;;;;5077004;28;20455;-82
2021/12/18 06:55:58;;;;;;;15.40;10.37;;;;;;;;;;5076943;28;20468;-81
2021/12/18 06:58:25;;;;;;;16.00;11.33;;;;;;;;;;5076730;28;20448;-81
2021/12/18 07:00:53;;;;;;;14.95;11.30;;;;;;;;;;5077065;28;20432;-81
2021/12/18 07:03:20;;;;;;;15.57;11.80;;;;;;;;;;5060780;28;20268;-81
2021/12/18 07:05:47;;;;;;;15.67;11.03;;;;;;;;;;5056389;28;20506;-81
2021/12/18 07:08:19;;;;;;;14.53;10.80;;;;;;;;;;5056014;28;20954;-81
2021/12/18 07:10:47;;;;;;;14.57;10.30;;;;;;;;;;5055533;28;20529;-83
2021/12/18 07:13:15;;;;;;;16.23;11.63;;;;;;;;;;5053810;28;20475;-80
2021/12/18 07:15:43;;;;;;;16.98;11.50;;;;;;;;;;5056918;28;20488;-80
2021/12/18 07:18:10;;;;;;;15.30;11.00;;;;;;;;;;5059253;28;20651;-80
2021/12/18 07:20:37;;;;;;;16.20;12.07;;;;;;;;;;5060030;28;20458;-81
2021/12/18 07:23:04;;;;;;;16.13;11.60;;;;;;;;;;5060150;28;20455;-81
2021/12/18 07:25:31;;;;;;;16.10;11.67;;;;;;;;;;5059786;28;20458;-81
2021/12/18 07:27:59;;;;;;;16.67;11.30;;;;;;;;;;5058903;28;20455;-82
2021/12/18 07:30:27;;;;;;;14.90;10.73;;;;;;;;;;5058489;28;20509;-83
2021/12/18 07:32:54;;;;;;;19.83;13.10;;;;;;;;;;5057510;28;20232;-83
2021/12/18 07:35:21;;;;;;;18.17;12.00;;;;;;;;;;5059974;28;20560;-83
2021/12/18 07:37:49;;;;;;;16.67;11.40;;;;;;;;;;5062584;28;20452;-82
2021/12/18 07:40:16;;;;;;;15.43;10.73;;;;;;;;;;5059731;28;20515;-80
2021/12/18 07:42:43;;;;;;;16.80;12.53;;;;;;;;;;5059287;28;20826;-81
2021/12/18 07:45:11;;;;;;;14.23;10.20;;;;;;;;;;5059186;28;20470;-82
2021/12/18 07:47:39;;;;;;;22.70;11.10;;;;;;;;;;5060017;28;20987;-80
2021/12/18 07:50:09;;;;;;;17.17;10.80;;;;;;;;;;5059682;28;21046;-82
2021/12/18 07:52:36;;;;;;;22.83;12.40;;;;;;;;;;5057886;28;21050;-81
2021/12/18 07:55:05;;;;;;;16.70;11.27;;;;;;;;;;5058800;28;20950;-82
2021/12/18 07:57:32;;;;;;;14.77;10.40;;;;;;;;;;5059045;28;20446;-81
2021/12/18 07:59:59;;;;;;;16.77;10.60;;;;;;;;;;5058960;28;20447;-81
2021/12/18 08:02:26;;;;;;;15.93;10.70;;;;;;;;;;5068111;28;20440;-81
2021/12/18 08:04:54;;;;;;;14.53;11.00;;;;;;;;;;5082059;28;20462;-81
2021/12/18 08:07:21;;;;;;;18.50;10.07;;;;;;;;;;5098542;28;20451;-80
2021/12/18 08:09:48;;;;;;;15.47;10.60;;;;;;;;;;5097840;28;20442;-81
2021/12/18 08:12:15;;;;;;;15.67;10.77;;;;;;;;;;5096321;28;20452;-80
2021/12/18 08:14:42;;;;;;;16.73;11.07;;;;;;;;;;5096777;28;20466;-80
2021/12/18 08:17:09;;;;;;;18.17;11.77;;;;;;;;;;5096633;28;20479;-81
2021/12/18 08:19:36;;;;;;;15.07;9.73;;;;;;;;;;5097008;28;20440;-81
2021/12/18 08:22:05;;;;;;;20.00;10.57;;;;;;;;;;5096656;28;20433;-81
2021/12/18 08:24:32;;;;;;;15.00;10.07;;;;;;;;;;5096553;28;20450;-80
2021/12/18 08:26:59;;;;;;;17.40;11.40;;;;;;;;;;5096329;28;20498;-80
2021/12/18 08:29:26;;;;;;;14.17;10.13;;;;;;;;;;5081353;28;20445;-80
2021/12/18 08:31:54;;;;;;;14.40;10.10;;;;;;;;;;5082426;28;20564;-80
2021/12/18 08:34:21;;;;;;;20.93;12.40;;;;;;;;;;5083518;28;20517;-81
2021/12/18 08:36:48;;;;;;;24.00;16.53;;;;;;;;;;5080841;28;20811;-81
2021/12/18 08:39:17;;;;;;;18.40;12.07;;;;;;;;;;5080387;28;20429;-82
2021/12/18 08:41:45;;;;;;;15.60;11.50;;;;;;;;;;5077216;28;20592;-81
2021/12/18 08:44:12;;;;;;;18.03;10.83;;;;;;;;;;5077175;28;20502;-81
2021/12/18 08:46:40;;;;;;;15.27;11.40;;;;;;;;;;5082963;28;20448;-81
2021/12/18 08:49:07;;;;;;;16.77;11.63;;;;;;;;;;5078937;28;20445;-81
2021/12/18 08:51:36;;;;;;;15.15;11.35;;;;;;;;;;5076513;28;20217;-82
2021/12/18 08:54:03;;;;;;;12.27;9.43;;;;;;;;;;5073369;28;20446;-83
2021/12/18 08:56:32;;;;;;;17.33;12.37;;;;;;;;;;5074403;28;20444;-82
2021/12/18 08:59:00;;;;;;;17.50;12.30;;;;;;;;;;5075434;28;20504;-82
2021/12/18 09:01:27;;;;;;;17.77;11.67;;;;;;;;;;5074518;28;20726;-80
2021/12/18 09:03:54;;;;;;;17.40;12.43;;;;;;;;;;5055656;28;20503;-81
2021/12/18 09:06:21;;;;;;;18.47;12.23;;;;;;;;;;5055441;28;20792;-81
2021/12/18 09:08:49;;;;;;;19.67;12.07;;;;;;;;;;5056081;28;20445;-82
2021/12/18 09:11:16;;;;;;;18.00;11.13;;;;;;;;;;5056404;28;20471;-82
2021/12/18 09:13:44;;;;;;;16.45;11.45;;;;;;;;;;5055291;28;20953;-82
2021/12/18 09:16:11;;;;;;;15.97;11.67;;;;;;;;;;5055802;28;20224;-82
2021/12/18 09:18:39;;;;;;;18.55;12.70;;;;;;;;;;5056640;28;20548;-81
2021/12/18 09:21:06;;;;;;;17.40;11.50;;;;;;;;;;5056628;28;20198;-81
2021/12/18 09:23:33;;;;;;;16.17;11.57;;;;;;;;;;5057448;28;20449;-81
2021/12/18 09:26:01;;;;;;;15.80;11.20;;;;;;;;;;5057078;28;20480;-82
2021/12/18 09:28:28;;;;;;;15.90;11.87;;;;;;;;;;5057796;28;20532;-81
2021/12/18 09:30:56;;;;;;;16.60;12.20;;;;;;;;;;5057489;28;20480;-81
2021/12/18 09:33:23;;;;;;;17.13;12.27;;;;;;;;;;5056809;28;20437;-81
2021/12/18 09:35:50;;;;;;;16.40;11.70;;;;;;;;;;5059416;28;20470;-82
2021/12/18 09:38:17;;;;;;;19.87;11.87;;;;;;;;;;5057865;28;20447;-82
2021/12/18 09:40:45;;;;;;;18.50;12.57;;;;;;;;;;5057474;28;20438;-81
2021/12/18 09:43:12;;;;;;;17.77;11.67;;;;;;;;;;5057092;28;20433;-81
2021/12/18 09:45:39;;;;;;;17.23;11.60;;;;;;;;;;5057929;28;20463;-81
2021/12/18 09:48:07;;;;;;;16.97;12.17;;;;;;;;;;5058932;28;20448;-81
2021/12/18 09:50:37;;;;;;;15.40;11.93;;;;;;;;;;5057706;28;20458;-81
2021/12/18 09:53:04;;;;;;;18.40;11.93;;;;;;;;;;5057876;28;20445;-81
2021/12/18 09:55:31;;;;;;;16.40;11.70;;;;;;;;;;5062327;28;20452;-84
2021/12/18 09:57:58;;;;;;;18.97;12.70;;;;;;;;;;5076248;28;20430;-82
2021/12/18 10:00:26;;;;;;;17.15;12.90;;;;;;;;;;5075584;28;20445;-81
2021/12/18 10:02:53;;;;;;;17.87;13.43;;;;;;;;;;5088131;28;20211;-81
2021/12/18 10:05:23;;;;;;;18.40;12.87;;;;;;;;;;5096353;28;20468;-81
2021/12/18 10:08:07;;;;;;;17.07;12.70;;;;;;;;;;5092697;28;20449;-84
2021/12/18 10:10:34;;;;;;;18.23;12.83;;;;;;;;;;5079717;28;20504;-82
2021/12/18 10:13:05;;;;;;;18.20;12.67;;;;;;;;;;5079294;28;20446;-82
2021/12/18 10:15:32;;;;;;;18.87;12.63;;;;;;;;;;5079387;28;20462;-82
2021/12/18 10:18:06;;;;;;;17.43;12.43;;;;;;;;;;5093905;28;20429;-80
2021/12/18 10:20:35;;;;;;;21.30;12.90;;;;;;;;;;5095723;28;20462;-81
2021/12/18 10:23:04;;;;;;;17.40;12.00;;;;;;;;;;5094844;28;20435;-80
2021/12/18 10:25:33;;;;;;;19.80;13.40;;;;;;;;;;5095061;28;20536;-81
2021/12/18 10:28:04;;;;;;;16.90;12.80;;;;;;;;;;5093865;28;20439;-81
2021/12/18 10:30:32;;;;;;;16.50;12.70;;;;;;;;;;5094099;28;20448;-80
2021/12/18 10:33:00;;;;;;;20.00;13.03;;;;;;;;;;5092954;28;20449;-81
2021/12/18 10:35:38;;;;;;;18.73;12.83;;;;;;;;;;5093162;28;20457;-81
2021/12/18 10:38:05;;;;;;;17.25;11.65;;;;;;;;;;5088326;28;20441;-81
2021/12/18 10:40:42;;;;;;;19.57;12.63;;;;;;;;;;5076744;28;20194;-80
2021/12/18 10:43:09;;;;;;;15.13;12.90;;;;;;;;;;5075201;28;20907;-81
2021/12/18 10:45:36;;;;;;;18.17;13.70;;;;;;;;;;5073718;28;20454;-82
2021/12/18 10:48:04;;;;;;;17.17;12.70;;;;;;;;;;5075154;28;20770;-81
2021/12/18 10:50:34;;;;;;;20.10;12.90;;;;;;;;;;5074910;28;20458;-83
2021/12/18 10:53:04;;;;;;;17.40;13.27;;;;;;;;;;5077473;28;20940;-81
2021/12/18 10:55:33;;;;;;;17.40;12.67;;;;;;;;;;5079003;28;20986;-81
2021/12/18 10:58:02;;;;;;;17.53;11.97;;;;;;;;;;5080259;28;20932;-83
2021/12/18 11:00:36;;;;;;;18.73;13.50;;;;;;;;;;5080363;28;20452;-83
2021/12/18 11:03:14;;;;;;;19.70;11.57;;;;;;;;;;5080623;28;20443;-83
2021/12/18 11:05:41;;;;;;;16.97;12.00;;;;;;;;;;5081833;28;20228;-82
2021/12/18 11:08:10;;;;;;;19.00;13.23;;;;;;;;;;5081783;28;20447;-83
2021/12/18 11:10:54;;;;;;;20.63;12.13;;;;;;;;;;5081191;28;20440;-82
2021/12/18 11:13:38;;;;;;;15.77;11.63;;;;;;;;;;5080832;28;20436;-82
2021/12/18 11:16:06;;;;;;;15.90;11.90;;;;;;;;;;5081629;28;20466;-83
2021/12/18 11:18:35;;;;;;;16.77;12.13;;;;;;;;;;5080702;28;20442;-83
2021/12/18 11:21:02;;;;;;;15.60;11.30;;;;;;;;;;5081548;28;20467;-83
2021/12/18 11:23:39;;;;;;;15.57;12.47;;;;;;;;;;5081692;28;20440;-83
2021/12/18 11:26:06;;;;;;;14.80;11.10;;;;;;;;;;5081520;28;20467;-82
2021/12/18 11:28:35;;;;;;;16.93;11.03;;;;;;;;;;5080820;28;20449;-83
2021/12/18 11:31:02;;;;;;;17.08;11.30;;;;;;;;;;5080737;28;20433;-84
2021/12/18 11:33:31;;;;;;;16.60;12.20;;;;;;;;;;5082228;28;20198;-82
2021/12/18 11:35:59;;;;;;;14.50;11.23;;;;;;;;;;5085052;28;20468;-83
2021/12/18 11:38:27;;;;;;;16.70;12.87;;;;;;;;;;5084356;28;20486;-83
2021/12/18 11:40:55;;;;;;;17.23;12.23;;;;;;;;;;5085718;28;20442;-81
2021/12/18 11:43:34;;;;;;;15.70;12.30;;;;;;;;;;5085944;28;20962;-82
2021/12/18 11:46:01;;;;;;;13.60;10.50;;;;;;;;;;5085790;28;20863;-82
2021/12/18 11:48:28;;;;;;;14.27;10.70;;;;;;;;;;5086878;28;20482;-81
2021/12/18 11:50:55;;;;;;;14.30;10.43;;;;;;;;;;5085607;28;20501;-82
2021/12/18 11:53:33;;;;;;;16.13;11.17;;;;;;;;;;5086260;28;20467;-83
2021/12/18 11:56:03;;;;;;;14.70;11.40;;;;;;;;;;5087451;28;20463;-83
2021/12/18 11:58:32;;;;;;;26.80;16.70;;;;;;;;;;5087077;28;20440;-81
2021/12/18 12:01:02;;;;;;;22.97;16.60;;;;;;;;;;5084922;28;20431;-82
2021/12/18 12:03:32;;;;;;;15.30;10.70;;;;;;;;;;5065883;28;20505;-82
2021/12/18 12:06:01;;;;;;;14.10;10.60;;;;;;;;;;5066767;28;20215;-83
2021/12/18 12:08:32;;;;;;;13.60;10.23;;;;;;;;;;5066417;28;20461;-82
2021/12/18 12:11:16;;;;;;;13.87;10.90;;;;;;;;;;5065106;28;21155;-82
2021/12/18 12:14:04;;;;;;;12.38;9.10;;;;;;;;;;5064669;28;20897;-82
2021/12/18 12:16:46;;;;;;;12.83;10.50;;;;;;;;;;5068708;28;20200;-83
2021/12/18 12:19:14;;;;;;;13.93;9.73;;;;;;;;;;5050253;28;20500;-82
2021/12/18 12:21:41;;;;;;;13.83;10.87;;;;;;;;;;5067897;28;20434;-82
2021/12/18 12:24:09;;;;;;;12.53;10.00;;;;;;;;;;5067770;28;20510;-82
2021/12/18 12:26:38;;;;;;;11.50;9.60;;;;;;;;;;5067257;28;20449;-83
2021/12/18 12:29:05;;;;;;;13.13;10.13;;;;;;;;;;5068064;28;20441;-82
2021/12/18 12:31:33;;;;;;;12.00;10.03;;;;;;;;;;5067231;28;20882;-83
2021/12/18 12:34:24;;;;;;;13.67;11.17;;;;;;;;;;5067274;28;20476;-83
2021/12/18 12:36:57;;;;;;;13.03;10.37;;;;;;;;;;5048831;28;20480;-83
2021/12/18 12:39:26;;;;;;;15.03;10.40;;;;;;;;;;5066691;28;20442;-82
2021/12/18 12:42:09;;;;;;;14.02;10.55;;;;;;;;;;5066146;28;20437;-84
2021/12/18 12:44:49;;;;;;;12.10;10.30;;;;;;;;;;5068725;28;20218;-83
2021/12/18 12:47:18;;;;;;;13.27;11.40;;;;;;;;;;5069700;28;20464;-83
2021/12/18 12:49:46;;;;;;;17.70;12.33;;;;;;;;;;5067637;28;20450;-83
2021/12/18 12:52:14;;;;;;;14.23;10.30;;;;;;;;;;5066139;28;20482;-83
2021/12/18 12:54:59;;;;;;;15.03;10.93;;;;;;;;;;5066611;28;20565;-82
2021/12/18 12:57:41;;;;;;;14.37;11.50;;;;;;;;;;5064102;28;21028;-83
2021/12/18 13:00:27;;;;;;;17.10;12.47;;;;;;;;;;5066456;28;20437;-83
2021/12/18 13:02:55;;;;;;;15.87;11.43;;;;;;;;;;5077888;28;20447;-83
2021/12/18 13:05:23;;;;;;;14.07;11.73;;;;;;;;;;5086388;28;20468;-82
2021/12/18 13:07:51;;;;;;;18.40;12.40;;;;;;;;;;5085838;28;20198;-82
2021/12/18 13:10:19;;;;;;;13.10;10.83;;;;;;;;;;5086362;28;20494;-82
2021/12/18 13:12:53;;;;;;;14.93;11.70;;;;;;;;;;5087855;28;20558;-82
2021/12/18 13:15:21;;;;;;;13.57;11.30;;;;;;;;;;5082324;28;20479;-83
2021/12/18 13:17:49;;;;;;;16.30;12.80;;;;;;;;;;5083598;28;20475;-82
2021/12/18 13:20:16;;;;;;;13.97;12.03;;;;;;;;;;5083374;28;20452;-82
2021/12/18 13:22:53;;;;;;;14.47;12.20;;;;;;;;;;5082792;28;20478;-83
2021/12/18 13:25:20;;;;;;;14.43;11.57;;;;;;;;;;5082897;28;20476;-81
2021/12/18 13:28:03;;;;;;;14.65;11.05;;;;;;;;;;5080503;28;20444;-83
2021/12/18 13:30:30;;;;;;;15.10;11.33;;;;;;;;;;5084303;28;20444;-83
2021/12/18 13:32:58;;;;;;;14.60;12.63;;;;;;;;;;5086178;28;20473;-83
2021/12/18 13:35:26;;;;;;;16.17;12.00;;;;;;;;;;5084279;28;21025;-83
2021/12/18 13:37:57;;;;;;;15.77;12.20;;;;;;;;;;5084682;28;20451;-83
2021/12/18 13:40:25;;;;;;;15.23;11.93;;;;;;;;;;5085662;28;20447;-84
2021/12/18 13:43:05;;;;;;;15.00;12.40;;;;;;;;;;5085319;28;20433;-83
2021/12/18 13:45:32;;;;;;;15.03;11.80;;;;;;;;;;5086851;28;20468;-83
2021/12/18 13:48:03;;;;;;;16.10;12.00;;;;;;;;;;5086122;28;20455;-83
2021/12/18 13:50:31;;;;;;;13.53;11.57;;;;;;;;;;5086092;28;20441;-84
2021/12/18 13:52:59;;;;;;;18.40;13.07;;;;;;;;;;5088310;28;20461;-83
2021/12/18 13:55:30;;;;;;;19.97;13.47;;;;;;;;;;5088322;28;20452;-81
2021/12/18 13:57:59;;;;;;;15.40;12.83;;;;;;;;;;5088313;28;20425;-84
2021/12/18 14:00:27;;;;;;;17.90;13.40;;;;;;;;;;5088296;28;20445;-83
2021/12/18 14:02:54;;;;;;;17.90;13.30;;;;;;;;;;5075019;28;20474;-82
2021/12/18 14:05:21;;;;;;;16.67;12.73;;;;;;;;;;5066038;28;20481;-84
2021/12/18 14:07:49;;;;;;;18.60;12.50;;;;;;;;;;5066677;28;20437;-81
2021/12/18 14:10:16;;;;;;;15.57;12.40;;;;;;;;;;5066865;28;20203;-82
2021/12/18 14:12:43;;;;;;;16.10;13.23;;;;;;;;;;5067292;28;20481;-84
2021/12/18 14:15:18;;;;;;;17.53;12.50;;;;;;;;;;5067155;28;20476;-84
2021/12/18 14:17:46;;;;;;;16.37;12.50;;;;;;;;;;5068699;28;20930;-82
2021/12/18 14:20:15;;;;;;;17.03;12.60;;;;;;;;;;5068346;28;20450;-83
2021/12/18 14:22:42;;;;;;;15.90;13.50;;;;;;;;;;5068077;28;20850;-83
2021/12/18 14:25:11;;;;;;;15.75;12.73;;;;;;;;;;5068219;28;20463;-85
2021/12/18 14:27:39;;;;;;;16.43;13.40;;;;;;;;;;5068413;28;20201;-83
2021/12/18 14:30:14;;;;;;;16.70;12.80;;;;;;;;;;5068336;28;20428;-82
2021/12/18 14:32:42;;;;;;;14.87;12.53;;;;;;;;;;5067694;28;20515;-82
2021/12/18 14:35:12;;;;;;;16.77;12.43;;;;;;;;;;5067636;28;20458;-81
2021/12/18 14:37:53;;;;;;;16.60;12.80;;;;;;;;;;5068799;28;20198;-82
2021/12/18 14:40:21;;;;;;;19.03;13.83;;;;;;;;;;5068140;28;20445;-83
2021/12/18 14:42:55;;;;;;;14.20;12.57;;;;;;;;;;5068035;28;20496;-82
2021/12/18 14:45:24;;;;;;;16.60;12.07;;;;;;;;;;5067735;28;20455;-82
2021/12/18 14:47:52;;;;;;;17.77;13.40;;;;;;;;;;5068114;28;20671;-83
2021/12/18 14:50:21;;;;;;;16.13;13.43;;;;;;;;;;5067944;28;20457;-83
2021/12/18 14:52:51;;;;;;;15.88;12.80;;;;;;;;;;5067682;28;20486;-82
2021/12/18 14:55:20;;;;;;;16.70;11.97;;;;;;;;;;5064860;28;20215;-81
2021/12/18 14:57:52;;;;;;;14.10;12.10;;;;;;;;;;5058330;28;20457;-82
2021/12/18 15:00:22;;;;;;;16.60;13.00;;;;;;;;;;5057392;28;20446;-82
2021/12/18 15:03:01;;;;;;;14.03;12.43;;;;;;;;;;5066182;28;20728;-82
2021/12/18 15:05:41;;;;;;;17.63;14.02;;;;;;;;;;5075015;28;20484;-83
2021/12/18 15:08:08;;;;;;;15.30;13.03;;;;;;;;;;5075685;28;20229;-82
2021/12/18 15:10:49;;;;;;;15.53;13.47;;;;;;;;;;5075005;28;20471;-82
2021/12/18 15:13:17;;;;;;;15.50;13.53;;;;;;;;;;5074599;28;20870;-82
2021/12/18 15:15:44;;;;;;;14.43;12.57;;;;;;;;;;5074294;28;20480;-82
2021/12/18 15:18:11;;;;;;;15.67;12.63;;;;;;;;;;5074054;28;20903;-82
2021/12/18 15:20:39;;;;;;;16.77;12.43;;;;;;;;;;5075209;28;20473;-82
2021/12/18 15:23:07;;;;;;;16.87;14.73;;;;;;;;;;5076064;28;20842;-82
2021/12/18 15:25:34;;;;;;;17.58;13.07;;;;;;;;;;5075344;28;20499;-81
2021/12/18 15:28:01;;;;;;;18.87;15.27;;;;;;;;;;5074311;28;20587;-82
2021/12/18 15:30:28;;;;;;;17.02;13.25;;;;;;;;;;5074424;28;20448;-81
2021/12/18 15:32:55;;;;;;;20.23;14.80;;;;;;;;;;5073552;28;20213;-82